Ana Sayfa
METAR-TAF:

METAR-TAF

Havaalanları :

Cusco, Peru

Enlem: 13-33S, Boylam: 071-59W, yükseklik: 3248 m

Güncel hava durumu gözlemi

Rapor saat 20:00 UTC de 12 saat ve 27 dakika önce yapıldı.
Rüzgar kuzeydoğudan 9 kt
Sıcaklık 19°C
Nem 21%
Basınç 1031 hPa
Görüş mesafesi 10 km veya daha fazla
5000 ft yükseklikte parçalı bulutlu

METAR: SPZO 242000Z 04009KT 9999 SCT050 19/M04 Q1031 NOSIG RMK BIRD HAZARD RWY 28 PP000

Saat: 03:27 (08:27 UTC)

Tahmin

Rapor saat 17:00 UTC de 15 saat ve 27 dakika önce yapıldı.
Ayın 24'si saat 18 UTC'den ayın 25'si saat 18 UTC'ye kadar geçerli Tahmin
Rüzgar doğu/kuzeydoğudan 5 kt
Görüş mesafesi 10 km veya daha fazla
8000 ft yükseklikte parçalı bulutlu

TAF: SPZO 241700Z 2418/2518 07005KT 9999 SCT080 TX21/2419Z TN04/2511Z

4.000'den fazla havaalanı için hava durumu gözlemleri ve tahminleri (METAR ve TAF raporları).

Kullanılabilir istasyonlar harita üzerinde sarı ve kırmızı noktalarla gösterilir.

İstasyonun adını görmek için fareyi noktanın üzerinde gezdirin.

Sonrasında hava gözlem ve tahminlerini görmek için tıklayın.

Haritayı değiştirmek için: yaklaştırmak için siyah artı işaretli yeşil düğmeye ve uzaklaştırmak için de eksi işaretli düğmeye hızla tıklayın; bitişik haritalar için yeşil okları kullanın.


METAR-TAF: